createdAt,value
2023-02-14T00:24:30.201Z,83.14
2023-02-14T00:54:34.732Z,84.01
2023-02-14T01:24:38.827Z,85.71
2023-02-14T01:54:46.221Z,85.57
2023-02-14T02:24:54.656Z,86.44
2023-02-14T02:55:01.571Z,86.32
2023-02-14T03:25:12.987Z,87.90
2023-02-14T03:55:21.485Z,88.22
2023-02-14T04:25:25.545Z,88.97
2023-02-14T04:55:30.075Z,88.47
2023-02-14T05:25:34.452Z,88.84
2023-02-14T05:55:38.397Z,89.42
2023-02-14T06:25:43.265Z,89.61
2023-02-14T06:55:47.876Z,90.24
2023-02-14T07:25:52.038Z,93.29
2023-02-14T07:55:56.304Z,92.14
2023-02-14T08:26:00.481Z,92.14
2023-02-14T08:56:05.515Z,87.81
2023-02-14T09:26:14.279Z,87.74
2023-02-14T09:56:23.576Z,87.25
2023-02-14T10:26:33.202Z,84.64
2023-02-14T10:56:39.780Z,86.85
2023-02-14T11:26:49.041Z,85.68
2023-02-14T11:56:56.947Z,84.39
2023-02-14T12:27:12.021Z,82.67
2023-02-14T12:57:28.542Z,83.20
2023-02-14T13:27:34.494Z,81.64
2023-02-14T13:57:41.386Z,82.27
2023-02-14T14:27:47.008Z,82.72
2023-02-14T14:57:54.004Z,83.74
2023-02-14T15:27:58.786Z,85.82
2023-02-14T15:58:04.635Z,86.87
2023-02-14T16:28:09.185Z,88.53
2023-02-14T16:58:15.218Z,90.26
2023-02-14T17:28:19.496Z,92.50
2023-02-14T17:58:25.491Z,93.40
2023-02-14T18:28:30.220Z,93.71
2023-02-14T18:58:37.658Z,92.69
2023-02-14T19:28:46.428Z,92.28
2023-02-14T19:58:52.173Z,92.81
2023-02-14T20:29:01.289Z,93.66
2023-02-14T20:59:10.978Z,93.92
2023-02-14T21:29:15.219Z,94.30
2023-02-14T21:59:19.590Z,94.42
2023-02-14T22:29:23.773Z,94.94
2023-02-14T22:59:28.414Z,94.89
2023-02-14T23:29:32.805Z,96.52
2023-02-14T23:59:36.926Z,97.73
